createdAt,value
2023-05-11T00:00:10.710Z,23.27
2023-05-11T00:01:10.727Z,23.27
2023-05-11T00:02:10.811Z,23.28
2023-05-11T00:03:11.034Z,23.27
2023-05-11T00:04:10.936Z,23.28
2023-05-11T00:05:10.827Z,23.27
2023-05-11T00:06:10.878Z,23.27
2023-05-11T00:07:10.897Z,23.27
2023-05-11T00:08:10.917Z,23.27
2023-05-11T00:09:10.946Z,23.27
2023-05-11T00:10:10.982Z,23.27
2023-05-11T00:11:11.002Z,23.27
2023-05-11T00:12:11.039Z,23.27
2023-05-11T00:13:11.058Z,23.26
2023-05-11T00:14:11.072Z,23.27
2023-05-11T00:15:11.119Z,23.27
2023-05-11T00:16:11.159Z,23.26
2023-05-11T00:17:11.154Z,23.26
2023-05-11T00:18:11.184Z,23.26
2023-05-11T00:19:11.225Z,23.26
2023-05-11T00:20:11.295Z,23.26
2023-05-11T00:21:11.296Z,23.26
2023-05-11T00:22:11.302Z,23.26
2023-05-11T00:23:11.301Z,23.26
2023-05-11T00:24:11.346Z,23.25
2023-05-11T00:25:11.366Z,23.25
2023-05-11T00:26:11.408Z,23.26
2023-05-11T00:27:11.410Z,23.25
2023-05-11T00:28:11.487Z,23.25
2023-05-11T00:29:11.502Z,23.24
2023-05-11T00:30:11.506Z,23.25
2023-05-11T00:31:11.575Z,23.25
2023-05-11T00:32:11.615Z,23.25
2023-05-11T00:33:11.605Z,23.25
2023-05-11T00:34:11.646Z,23.25
2023-05-11T00:35:11.704Z,23.24
2023-05-11T00:36:11.756Z,23.24
2023-05-11T00:37:11.733Z,23.24
2023-05-11T00:38:11.782Z,23.24
2023-05-11T00:39:11.775Z,23.24
2023-05-11T00:40:11.815Z,23.23
2023-05-11T00:41:11.892Z,23.24
2023-05-11T00:42:11.898Z,23.24
2023-05-11T00:43:11.929Z,23.23
2023-05-11T00:44:11.941Z,23.24
2023-05-11T00:45:11.971Z,23.24
2023-05-11T00:46:12.018Z,23.24
2023-05-11T00:47:12.085Z,23.23
2023-05-11T00:48:12.084Z,23.23
2023-05-11T00:49:12.104Z,23.22
2023-05-11T00:50:12.141Z,23.22
2023-05-11T00:51:12.189Z,23.23
2023-05-11T00:52:12.193Z,23.22
2023-05-11T00:53:12.250Z,23.22
2023-05-11T00:54:12.291Z,23.23
2023-05-11T00:55:12.275Z,23.22
2023-05-11T00:56:12.336Z,23.23
2023-05-11T00:57:12.358Z,23.22
2023-05-11T00:58:12.372Z,23.22
2023-05-11T00:59:12.411Z,23.22
2023-05-11T01:00:12.428Z,23.22
2023-05-11T01:01:12.544Z,23.22
2023-05-11T01:02:12.543Z,23.22
2023-05-11T01:03:12.574Z,23.21
2023-05-11T01:04:12.587Z,23.21
2023-05-11T01:05:12.608Z,23.21
2023-05-11T01:06:12.640Z,23.21
2023-05-11T01:07:12.676Z,23.20
2023-05-11T01:08:12.756Z,23.21
2023-05-11T01:09:12.746Z,23.20
2023-05-11T01:10:12.790Z,23.21
2023-05-11T01:11:12.869Z,23.20
2023-05-11T01:12:12.848Z,23.21
2023-05-11T01:13:12.895Z,23.20
2023-05-11T01:14:12.938Z,23.19
2023-05-11T01:15:12.943Z,23.20
2023-05-11T01:16:12.990Z,23.21
2023-05-11T01:17:12.997Z,23.20
2023-05-11T01:18:13.063Z,23.20
2023-05-11T01:19:13.078Z,23.20
2023-05-11T01:20:13.105Z,23.20
2023-05-11T01:21:13.141Z,23.19
2023-05-11T01:22:13.174Z,23.20
2023-05-11T01:23:13.214Z,23.20
2023-05-11T01:24:13.254Z,23.19
2023-05-11T01:25:13.267Z,23.19
2023-05-11T01:26:13.298Z,23.19
2023-05-11T01:27:13.337Z,23.19
2023-05-11T01:28:13.355Z,23.19
2023-05-11T01:29:13.393Z,23.19
2023-05-11T01:30:13.411Z,23.18
2023-05-11T01:31:13.445Z,23.19
2023-05-11T01:32:13.567Z,23.18
2023-05-11T01:33:13.546Z,23.18
2023-05-11T01:34:13.588Z,23.19
2023-05-11T01:35:13.603Z,23.18
2023-05-11T01:36:13.619Z,23.18
2023-05-11T01:37:13.658Z,23.17
2023-05-11T01:38:13.695Z,23.18
2023-05-11T01:39:13.733Z,23.18
2023-05-11T01:40:13.773Z,23.18
2023-05-11T01:41:13.791Z,23.18
2023-05-11T01:42:13.830Z,23.18
2023-05-11T01:43:13.870Z,23.17
2023-05-11T01:44:13.934Z,23.17
2023-05-11T01:45:13.940Z,23.17
2023-05-11T01:46:13.987Z,23.18
2023-05-11T01:47:13.997Z,23.17
2023-05-11T01:48:14.042Z,23.16
2023-05-11T01:49:14.109Z,23.17
2023-05-11T01:50:14.105Z,23.17
2023-05-11T01:51:14.168Z,23.17
2023-05-11T01:52:14.187Z,23.17
2023-05-11T01:53:14.237Z,23.17
2023-05-11T01:54:14.305Z,23.16
2023-05-11T01:55:14.312Z,23.17
2023-05-11T01:56:14.345Z,23.17
2023-05-11T01:57:14.398Z,23.16
2023-05-11T01:58:14.420Z,23.17
2023-05-11T01:59:14.463Z,23.16
2023-05-11T02:00:14.503Z,23.16
2023-05-11T02:01:14.539Z,23.15
2023-05-11T02:02:14.576Z,23.16
2023-05-11T02:03:14.673Z,23.15
2023-05-11T02:04:14.682Z,23.15
2023-05-11T02:05:14.681Z,23.16
2023-05-11T02:06:14.726Z,23.15
2023-05-11T02:07:14.768Z,23.15
2023-05-11T02:08:14.805Z,23.15
2023-05-11T02:09:14.840Z,23.14
2023-05-11T02:10:14.905Z,23.15
2023-05-11T02:11:14.912Z,23.15
2023-05-11T02:12:14.954Z,23.14
2023-05-11T02:13:14.995Z,23.15
2023-05-11T02:14:15.040Z,23.14
2023-05-11T02:15:15.094Z,23.14
2023-05-11T02:16:15.166Z,23.14
2023-05-11T02:17:15.165Z,23.13
2023-05-11T02:18:15.199Z,23.14
2023-05-11T02:19:15.254Z,23.13
2023-05-11T02:20:15.283Z,23.14
2023-05-11T02:21:15.315Z,23.13
2023-05-11T02:22:15.375Z,23.13
2023-05-11T02:23:15.391Z,23.14
2023-05-11T02:24:15.441Z,23.13
2023-05-11T02:25:15.511Z,23.12
2023-05-11T02:26:15.520Z,23.13
2023-05-11T02:27:15.561Z,23.12
2023-05-11T02:28:15.590Z,23.12
2023-05-11T02:29:15.638Z,23.12
2023-05-11T02:30:15.851Z,23.12
2023-05-11T02:31:15.702Z,23.12
2023-05-11T02:32:15.731Z,23.12
2023-05-11T02:33:15.763Z,23.12
2023-05-11T02:34:15.810Z,23.11
2023-05-11T02:35:15.843Z,23.12
2023-05-11T02:36:15.889Z,23.11
2023-05-11T02:37:15.922Z,23.11
2023-05-11T02:38:15.957Z,23.11
2023-05-11T02:39:15.994Z,23.11
2023-05-11T02:40:16.274Z,23.11
2023-05-11T02:41:16.086Z,23.11
2023-05-11T02:42:16.127Z,23.11
2023-05-11T02:43:16.188Z,23.11
2023-05-11T02:44:16.230Z,23.11
2023-05-11T02:45:16.258Z,23.12
2023-05-11T02:46:16.329Z,23.11
2023-05-11T02:47:16.345Z,23.10
2023-05-11T02:48:16.373Z,23.11
2023-05-11T02:49:16.419Z,23.11
2023-05-11T02:50:16.591Z,23.10
2023-05-11T02:51:16.526Z,23.10
2023-05-11T02:52:16.574Z,23.10
2023-05-11T02:53:16.621Z,23.10
2023-05-11T02:54:16.666Z,23.10
2023-05-11T02:55:16.741Z,23.10
2023-05-11T02:56:16.783Z,23.09
2023-05-11T02:57:16.811Z,23.10
2023-05-11T02:58:16.950Z,23.09
2023-05-11T02:59:16.901Z,23.09
2023-05-11T03:00:17.337Z,23.09
2023-05-11T03:01:17.059Z,23.09
2023-05-11T03:02:17.126Z,23.09
2023-05-11T03:03:17.217Z,23.08
2023-05-11T03:04:17.141Z,23.09
2023-05-11T03:05:17.182Z,23.09
2023-05-11T03:06:17.232Z,23.09
2023-05-11T03:07:17.282Z,23.08
2023-05-11T03:08:17.326Z,23.09
2023-05-11T03:09:17.376Z,23.08
2023-05-11T03:10:17.689Z,23.08
2023-05-11T03:11:17.465Z,23.08
2023-05-11T03:12:17.518Z,23.08
2023-05-11T03:13:17.560Z,23.08
2023-05-11T03:14:17.614Z,23.08
2023-05-11T03:15:17.677Z,23.08
2023-05-11T03:16:20.417Z,23.07
2023-05-11T03:17:17.696Z,23.07
2023-05-11T03:18:17.715Z,23.07
2023-05-11T03:19:17.686Z,23.07
2023-05-11T03:20:17.987Z,23.06
2023-05-11T03:21:17.670Z,23.07
2023-05-11T03:22:17.658Z,23.07
2023-05-11T03:23:17.669Z,23.06
2023-05-11T03:24:17.650Z,23.06
2023-05-11T03:25:17.641Z,23.06
2023-05-11T03:26:17.633Z,23.06
2023-05-11T03:27:17.628Z,23.05
2023-05-11T03:28:17.627Z,23.06
2023-05-11T03:29:17.616Z,23.06
2023-05-11T03:30:17.704Z,23.06
2023-05-11T03:31:17.601Z,23.05
2023-05-11T03:32:17.726Z,23.06
2023-05-11T03:33:17.589Z,23.05
2023-05-11T03:34:17.574Z,23.05
2023-05-11T03:35:17.577Z,23.05
2023-05-11T03:36:17.569Z,23.05
2023-05-11T03:37:17.567Z,23.05
2023-05-11T03:38:17.560Z,23.05
2023-05-11T03:39:17.550Z,23.05
2023-05-11T03:40:17.712Z,23.05
2023-05-11T03:41:17.564Z,23.05
2023-05-11T03:42:17.528Z,23.05
2023-05-11T03:43:17.517Z,23.05
2023-05-11T03:44:17.513Z,23.05
2023-05-11T03:45:17.518Z,23.04
2023-05-11T03:46:17.515Z,23.04
2023-05-11T03:47:17.509Z,23.04
2023-05-11T03:48:17.492Z,23.03
2023-05-11T03:49:17.483Z,23.04
2023-05-11T03:50:17.590Z,23.04
2023-05-11T03:51:17.465Z,23.04
2023-05-11T03:52:17.453Z,23.03
2023-05-11T03:53:17.449Z,23.04
2023-05-11T03:54:17.428Z,23.03
2023-05-11T03:55:17.470Z,23.03
2023-05-11T03:56:17.500Z,23.03
2023-05-11T03:57:17.555Z,23.03
2023-05-11T03:58:17.612Z,23.02
2023-05-11T03:59:17.654Z,23.02
2023-05-11T04:00:17.871Z,23.02
2023-05-11T04:01:17.752Z,23.03
2023-05-11T04:02:17.805Z,23.02
2023-05-11T04:03:17.924Z,23.02
2023-05-11T04:04:17.988Z,23.02
2023-05-11T04:05:17.930Z,23.03
2023-05-11T04:06:17.996Z,23.02
2023-05-11T04:07:18.021Z,23.02
2023-05-11T04:08:18.069Z,23.02
2023-05-11T04:09:18.131Z,23.02
2023-05-11T04:10:18.357Z,23.02
2023-05-11T04:11:18.240Z,23.01
2023-05-11T04:12:18.281Z,23.02
2023-05-11T04:13:18.334Z,23.01
2023-05-11T04:14:18.406Z,23.01
2023-05-11T04:15:18.452Z,23.02
2023-05-11T04:16:18.600Z,23.01
2023-05-11T04:17:18.541Z,23.01
2023-05-11T04:18:18.646Z,23.01
2023-05-11T04:19:18.995Z,23.01
2023-05-11T04:20:18.964Z,23.00
2023-05-11T04:21:18.740Z,23.01
2023-05-11T04:22:18.794Z,23.01
2023-05-11T04:23:18.843Z,23.00
2023-05-11T04:24:18.910Z,23.00
2023-05-11T04:25:18.953Z,23.01
2023-05-11T04:26:18.978Z,23.01
2023-05-11T04:27:19.038Z,23.00
2023-05-11T04:28:19.104Z,23.00
2023-05-11T04:29:19.148Z,23.00
2023-05-11T04:30:19.427Z,22.99
2023-05-11T04:31:19.283Z,22.99
2023-05-11T04:32:19.308Z,22.99
2023-05-11T04:33:19.329Z,23.00
2023-05-11T04:34:19.410Z,23.00
2023-05-11T04:35:19.437Z,22.99
2023-05-11T04:36:19.502Z,22.98
2023-05-11T04:37:19.544Z,22.99
2023-05-11T04:38:19.608Z,22.99
2023-05-11T04:39:19.645Z,22.99
2023-05-11T04:40:19.960Z,22.99
2023-05-11T04:41:19.750Z,22.99
2023-05-11T04:42:19.812Z,22.98
2023-05-11T04:43:19.853Z,22.99
2023-05-11T04:44:19.940Z,22.99
2023-05-11T04:45:19.985Z,22.99
2023-05-11T04:46:20.008Z,22.99
2023-05-11T04:47:20.067Z,22.98
2023-05-11T04:48:20.893Z,22.98
2023-05-11T04:49:20.170Z,22.98
2023-05-11T04:50:20.359Z,22.98
2023-05-11T04:51:20.262Z,22.97
2023-05-11T04:52:20.305Z,22.98
2023-05-11T04:53:20.406Z,22.97
2023-05-11T04:54:20.445Z,22.97
2023-05-11T04:55:20.482Z,22.97
2023-05-11T04:56:20.526Z,22.97
2023-05-11T04:57:20.570Z,22.97
2023-05-11T04:58:20.624Z,22.97
2023-05-11T04:59:20.672Z,22.97
2023-05-11T05:00:20.941Z,22.97
2023-05-11T05:01:20.806Z,22.97
2023-05-11T05:02:20.858Z,22.97
2023-05-11T05:03:20.889Z,22.97
2023-05-11T05:04:20.959Z,22.97
2023-05-11T05:05:20.990Z,22.96
2023-05-11T05:06:21.034Z,22.96
2023-05-11T05:07:21.122Z,22.96
2023-05-11T05:08:21.146Z,22.97
2023-05-11T05:09:21.214Z,22.96
2023-05-11T05:10:21.262Z,22.97
2023-05-11T05:11:21.334Z,22.96
2023-05-11T05:12:21.363Z,22.96
2023-05-11T05:13:21.423Z,22.95
2023-05-11T05:14:21.499Z,22.95
2023-05-11T05:15:21.552Z,22.96
2023-05-11T05:16:21.632Z,22.95
2023-05-11T05:17:21.651Z,22.96
2023-05-11T05:18:21.749Z,22.95
2023-05-11T05:19:21.773Z,22.95
2023-05-11T05:20:21.831Z,22.94
2023-05-11T05:21:21.880Z,22.95
2023-05-11T05:22:21.965Z,22.94
2023-05-11T05:23:21.993Z,22.95
2023-05-11T05:24:22.038Z,22.95
2023-05-11T05:25:22.109Z,22.94
2023-05-11T05:26:22.145Z,22.94
2023-05-11T05:27:22.195Z,22.94
2023-05-11T05:28:22.270Z,22.94
2023-05-11T05:29:22.332Z,22.94
2023-05-11T05:30:22.383Z,22.94
2023-05-11T05:31:22.471Z,22.93
2023-05-11T05:32:22.509Z,22.94
2023-05-11T05:33:22.523Z,22.94
2023-05-11T05:34:22.618Z,22.95
2023-05-11T05:35:22.640Z,22.97
2023-05-11T05:36:22.678Z,22.97
2023-05-11T05:37:22.777Z,22.99
2023-05-11T05:38:22.783Z,23.00
2023-05-11T05:39:22.827Z,23.03
2023-05-11T05:40:22.915Z,23.05
2023-05-11T05:41:22.930Z,23.08
2023-05-11T05:42:23.032Z,23.11
2023-05-11T05:43:23.008Z,23.14
2023-05-11T05:44:23.051Z,23.18
2023-05-11T05:45:23.089Z,23.20
2023-05-11T05:46:23.211Z,23.24
2023-05-11T05:47:23.184Z,23.27
2023-05-11T05:48:23.151Z,23.30
2023-05-11T05:49:23.179Z,23.33
2023-05-11T05:50:23.203Z,23.35
2023-05-11T05:51:23.211Z,23.38
2023-05-11T05:52:23.232Z,23.42
2023-05-11T05:53:23.273Z,23.45
2023-05-11T05:54:23.286Z,23.49
2023-05-11T05:55:23.341Z,23.51
2023-05-11T05:56:23.346Z,23.57
2023-05-11T05:57:23.340Z,23.59
2023-05-11T05:58:23.401Z,23.62
2023-05-11T05:59:23.411Z,23.65
2023-05-11T06:00:23.382Z,23.67
2023-05-11T06:01:23.432Z,23.71
2023-05-11T06:02:23.474Z,23.74
2023-05-11T06:03:23.496Z,23.77
2023-05-11T06:04:23.475Z,23.80
2023-05-11T06:05:23.474Z,23.83
2023-05-11T06:06:23.395Z,23.85
2023-05-11T06:07:23.422Z,23.87
2023-05-11T06:08:23.414Z,23.90
2023-05-11T06:09:23.421Z,23.93
2023-05-11T06:10:23.692Z,23.96
2023-05-11T06:11:23.494Z,23.98
2023-05-11T06:12:23.544Z,24.00
2023-05-11T06:13:23.598Z,24.03
2023-05-11T06:14:23.662Z,24.06
2023-05-11T06:15:23.703Z,24.08
2023-05-11T06:16:23.807Z,24.10
2023-05-11T06:17:23.891Z,24.13
2023-05-11T06:18:23.972Z,24.14
2023-05-11T06:19:23.957Z,24.16
2023-05-11T06:20:24.009Z,24.18
2023-05-11T06:21:24.066Z,24.20
2023-05-11T06:22:24.137Z,24.22
2023-05-11T06:23:24.148Z,24.22
2023-05-11T06:24:24.225Z,24.25
2023-05-11T06:25:24.250Z,24.26
2023-05-11T06:26:24.295Z,24.28
2023-05-11T06:27:24.342Z,24.29
2023-05-11T06:28:24.426Z,24.30
2023-05-11T06:29:24.441Z,24.30
2023-05-11T06:30:24.480Z,24.30
2023-05-11T06:31:24.630Z,24.30
2023-05-11T06:32:24.603Z,24.31
2023-05-11T06:33:24.600Z,24.31
2023-05-11T06:34:24.656Z,24.32
2023-05-11T06:35:24.699Z,24.32
2023-05-11T06:36:24.751Z,24.33
2023-05-11T06:37:24.805Z,24.35
2023-05-11T06:38:24.846Z,24.35
2023-05-11T06:39:24.893Z,24.35
2023-05-11T06:40:25.232Z,24.34
2023-05-11T06:41:25.021Z,24.33
2023-05-11T06:42:25.127Z,24.30
2023-05-11T06:43:25.078Z,24.27
2023-05-11T06:44:25.154Z,24.24
2023-05-11T06:45:25.836Z,24.21
2023-05-11T06:46:25.433Z,24.17
2023-05-11T06:47:25.391Z,24.13
2023-05-11T06:48:25.386Z,24.11
2023-05-11T06:49:25.442Z,24.07
2023-05-11T06:50:27.509Z,24.04
2023-05-11T06:51:25.505Z,24.01
2023-05-11T06:52:25.500Z,23.98
2023-05-11T06:53:25.497Z,23.96
2023-05-11T06:54:25.497Z,23.93
2023-05-11T06:55:25.509Z,23.90
2023-05-11T06:56:25.477Z,23.89
2023-05-11T06:57:25.483Z,23.86
2023-05-11T06:58:25.486Z,23.85
2023-05-11T06:59:25.491Z,23.82
2023-05-11T07:00:25.581Z,23.81
2023-05-11T07:01:25.571Z,23.79
2023-05-11T07:02:25.563Z,23.78
2023-05-11T07:03:25.519Z,23.76
2023-05-11T07:04:25.562Z,23.75
2023-05-11T07:05:25.572Z,23.74
2023-05-11T07:06:25.582Z,23.73
2023-05-11T07:07:25.574Z,23.72
2023-05-11T07:08:25.591Z,23.70
2023-05-11T07:09:25.601Z,23.69
2023-05-11T07:10:25.654Z,23.69
2023-05-11T07:11:25.645Z,23.67
2023-05-11T07:12:25.653Z,23.67
2023-05-11T07:13:25.712Z,23.66
2023-05-11T07:14:25.742Z,23.65
2023-05-11T07:15:25.729Z,23.65
2023-05-11T07:16:25.791Z,23.64
2023-05-11T07:17:25.817Z,23.63
2023-05-11T07:18:25.864Z,23.63
2023-05-11T07:19:25.850Z,23.62
2023-05-11T07:20:25.859Z,23.61
2023-05-11T07:21:25.889Z,23.61
2023-05-11T07:22:25.892Z,23.61
2023-05-11T07:23:25.927Z,23.60
2023-05-11T07:24:25.976Z,23.59
2023-05-11T07:25:25.993Z,23.59
2023-05-11T07:26:26.019Z,23.59
2023-05-11T07:27:26.016Z,23.59
2023-05-11T07:28:26.049Z,23.58
2023-05-11T07:29:26.092Z,23.57
2023-05-11T07:30:26.181Z,23.57
2023-05-11T07:31:26.193Z,23.56
2023-05-11T07:32:26.211Z,23.53
2023-05-11T07:33:26.204Z,23.50
2023-05-11T07:34:26.223Z,23.47
2023-05-11T07:35:26.266Z,23.43
2023-05-11T07:36:26.704Z,23.37
2023-05-11T07:37:26.310Z,23.33
2023-05-11T07:38:26.351Z,23.31
2023-05-11T07:39:26.393Z,23.30
2023-05-11T07:40:26.429Z,23.25
2023-05-11T07:41:26.732Z,23.18
2023-05-11T07:42:26.587Z,23.09
2023-05-11T07:43:26.582Z,22.95
2023-05-11T07:44:26.579Z,22.83
2023-05-11T07:45:26.563Z,22.69
2023-05-11T07:46:26.723Z,22.53
2023-05-11T07:47:26.655Z,22.44
2023-05-11T07:48:26.638Z,22.30
2023-05-11T07:50:27.085Z,22.06
2023-05-11T07:51:26.854Z,21.92
2023-05-11T07:52:26.804Z,21.88
2023-05-11T07:53:26.818Z,21.82
2023-05-11T07:54:26.811Z,21.75
2023-05-11T07:55:26.816Z,21.70
2023-05-11T07:56:26.844Z,21.64
2023-05-11T07:57:26.857Z,21.52
2023-05-11T07:58:26.844Z,21.39
2023-05-11T07:59:26.851Z,21.35
2023-05-11T08:00:26.861Z,21.30
2023-05-11T08:01:26.896Z,21.21
2023-05-11T08:02:27.056Z,21.12
2023-05-11T08:03:27.007Z,21.01
2023-05-11T08:04:27.026Z,20.96
2023-05-11T08:05:27.104Z,20.91
2023-05-11T08:06:27.137Z,20.84
2023-05-11T08:07:27.218Z,20.78
2023-05-11T08:08:27.239Z,20.73
2023-05-11T08:09:27.298Z,20.70
2023-05-11T08:10:27.315Z,20.67
2023-05-11T08:11:27.383Z,20.68
2023-05-11T08:12:27.418Z,20.71
2023-05-11T08:13:27.455Z,20.72
2023-05-11T08:14:27.525Z,20.69
2023-05-11T08:15:27.582Z,20.70
2023-05-11T08:16:27.677Z,20.71
2023-05-11T08:17:27.757Z,20.56
2023-05-11T08:18:27.805Z,20.55
2023-05-11T08:19:27.804Z,20.58
2023-05-11T08:20:27.873Z,20.62
2023-05-11T08:21:28.257Z,20.63
2023-05-11T08:22:28.001Z,20.63
2023-05-11T08:23:28.046Z,20.64
2023-05-11T08:24:28.110Z,20.62
2023-05-11T08:25:28.169Z,20.63
2023-05-11T08:26:28.225Z,20.62
2023-05-11T08:27:28.274Z,20.63
2023-05-11T08:28:28.348Z,20.65
2023-05-11T08:29:28.458Z,20.67
2023-05-11T08:30:28.400Z,20.59
2023-05-11T08:31:28.448Z,20.62
2023-05-11T08:32:28.474Z,20.72
2023-05-11T08:34:28.597Z,20.96
2023-05-11T08:35:28.367Z,21.10
2023-05-11T08:36:28.385Z,21.23
2023-05-11T08:37:28.345Z,21.34
2023-05-11T08:38:28.350Z,21.46
2023-05-11T08:39:45.474Z,21.58
2023-05-11T08:40:29.376Z,21.69
2023-05-11T08:41:28.364Z,21.77
2023-05-11T08:42:28.328Z,21.85
2023-05-11T08:43:28.313Z,21.92
2023-05-11T08:44:28.302Z,22.01
2023-05-11T08:45:28.339Z,22.09
2023-05-11T08:46:28.316Z,22.17
2023-05-11T08:47:28.339Z,22.23
2023-05-11T08:48:28.277Z,22.26
2023-05-11T08:49:28.273Z,22.29
2023-05-11T08:50:28.271Z,22.31
2023-05-11T08:51:28.737Z,22.31
2023-05-11T08:52:28.265Z,22.32
2023-05-11T08:53:28.266Z,22.32
2023-05-11T08:54:28.260Z,22.31
2023-05-11T08:55:28.230Z,22.31
2023-05-11T08:56:28.209Z,22.31
2023-05-11T08:57:28.216Z,22.31
2023-05-11T08:58:28.229Z,22.32
2023-05-11T08:59:28.213Z,22.33
2023-05-11T09:00:28.192Z,22.33
2023-05-11T09:01:28.220Z,22.33
2023-05-11T09:02:28.242Z,22.34
2023-05-11T09:03:28.208Z,22.34
2023-05-11T09:04:28.205Z,22.35
2023-05-11T09:05:28.298Z,22.35
2023-05-11T09:06:28.228Z,22.35
2023-05-11T09:07:28.240Z,22.34
2023-05-11T09:08:28.232Z,22.35
2023-05-11T09:09:28.254Z,22.35
2023-05-11T09:10:28.259Z,22.35
2023-05-11T09:11:28.270Z,22.35
2023-05-11T09:12:28.272Z,22.36
2023-05-11T09:13:28.310Z,22.36
2023-05-11T09:14:28.309Z,22.36
2023-05-11T09:15:28.306Z,22.37
2023-05-11T09:16:36.757Z,22.37
2023-05-11T09:17:29.401Z,22.37
2023-05-11T09:18:28.370Z,22.37
2023-05-11T09:19:28.290Z,22.37
2023-05-11T09:20:28.307Z,22.37
2023-05-11T09:21:28.285Z,22.38
2023-05-11T09:22:30.807Z,22.38
2023-05-11T09:23:28.276Z,22.39
2023-05-11T09:24:28.258Z,22.39
2023-05-11T09:25:28.258Z,22.40
2023-05-11T09:26:28.250Z,22.40
2023-05-11T09:27:28.272Z,22.41
2023-05-11T09:29:30.387Z,22.41
2023-05-11T09:30:28.275Z,22.38
2023-05-11T09:31:28.322Z,22.39
2023-05-11T09:32:28.315Z,22.41
2023-05-11T09:33:28.251Z,22.37
2023-05-11T09:34:28.280Z,22.37
2023-05-11T09:35:28.272Z,22.38
2023-05-11T09:36:28.294Z,22.39
2023-05-11T09:37:28.287Z,22.39
2023-05-11T09:38:28.311Z,22.39
2023-05-11T09:39:35.373Z,22.40
2023-05-11T09:40:33.879Z,22.40
2023-05-11T09:41:34.918Z,22.40
2023-05-11T09:42:29.276Z,22.40
2023-05-11T09:43:28.313Z,22.40
2023-05-11T09:44:28.286Z,22.40
2023-05-11T09:45:28.285Z,22.41
2023-05-11T09:46:28.386Z,22.42
2023-05-11T09:47:28.265Z,22.43
2023-05-11T09:48:28.241Z,22.44
2023-05-11T09:49:28.234Z,22.47
2023-05-11T09:50:28.271Z,22.51
2023-05-11T09:51:28.247Z,22.54
2023-05-11T09:52:28.217Z,22.58
2023-05-11T09:53:28.240Z,22.62
2023-05-11T09:54:28.199Z,22.67
2023-05-11T09:55:28.188Z,22.71
2023-05-11T09:56:28.200Z,22.75
2023-05-11T09:57:28.236Z,22.79
2023-05-11T09:58:28.176Z,22.84
2023-05-11T09:59:28.161Z,22.88
2023-05-11T10:00:28.164Z,22.93
2023-05-11T10:01:28.185Z,22.98
2023-05-11T10:02:28.234Z,23.01
2023-05-11T10:03:28.227Z,23.05
2023-05-11T10:04:28.314Z,23.08
2023-05-11T10:05:28.119Z,23.11
2023-05-11T10:06:28.112Z,23.14
2023-05-11T10:07:28.119Z,23.17
2023-05-11T10:08:28.112Z,23.19
2023-05-11T10:09:28.098Z,23.21
2023-05-11T10:10:28.158Z,23.23
2023-05-11T10:11:28.084Z,23.25
2023-05-11T10:12:28.082Z,23.28
2023-05-11T10:13:28.060Z,23.29
2023-05-11T10:14:28.088Z,23.31
2023-05-11T10:15:28.054Z,23.32
2023-05-11T10:16:28.117Z,23.32
2023-05-11T10:17:28.072Z,23.34
2023-05-11T10:18:28.043Z,23.36
2023-05-11T10:19:28.021Z,23.36
2023-05-11T10:20:28.032Z,23.38
2023-05-11T10:21:28.018Z,23.39
2023-05-11T10:22:28.036Z,23.40
2023-05-11T10:23:28.008Z,23.42
2023-05-11T10:24:28.084Z,23.43
2023-05-11T10:25:28.032Z,23.44
2023-05-11T10:26:28.075Z,23.45
2023-05-11T10:27:28.098Z,23.47
2023-05-11T10:28:29.440Z,23.47
2023-05-11T10:29:28.174Z,23.49
2023-05-11T10:30:28.801Z,23.50
2023-05-11T10:31:28.270Z,23.51
2023-05-11T10:32:28.338Z,23.53
2023-05-11T10:33:28.284Z,23.56
2023-05-11T10:34:28.291Z,23.57
2023-05-11T10:35:28.311Z,23.58
2023-05-11T10:36:28.335Z,23.59
2023-05-11T10:37:28.350Z,23.61
2023-05-11T10:38:28.364Z,23.61
2023-05-11T10:39:28.393Z,23.61
2023-05-11T10:40:28.427Z,23.62
2023-05-11T10:41:28.429Z,23.62
2023-05-11T10:42:28.792Z,23.63
2023-05-11T10:43:28.466Z,23.64
2023-05-11T10:44:28.500Z,23.66
2023-05-11T10:45:28.496Z,23.66
2023-05-11T10:46:30.333Z,23.66
2023-05-11T10:47:28.557Z,23.67
2023-05-11T10:48:28.566Z,23.68
2023-05-11T10:49:28.573Z,23.68
2023-05-11T10:50:28.632Z,23.67
2023-05-11T10:51:28.626Z,23.68
2023-05-11T10:52:29.420Z,23.68
2023-05-11T10:53:28.741Z,23.68
2023-05-11T10:54:28.685Z,23.68
2023-05-11T10:55:28.719Z,23.69
2023-05-11T10:56:28.740Z,23.69
2023-05-11T10:57:28.711Z,23.70
2023-05-11T10:58:28.712Z,23.71
2023-05-11T10:59:28.722Z,23.71
2023-05-11T11:00:28.769Z,23.72
2023-05-11T11:01:28.818Z,23.72
2023-05-11T11:02:28.768Z,23.73
2023-05-11T11:03:28.762Z,23.72
2023-05-11T11:04:29.816Z,23.73
2023-05-11T11:05:28.846Z,23.74
2023-05-11T11:06:28.828Z,23.74
2023-05-11T11:07:28.815Z,23.74
2023-05-11T11:08:28.818Z,23.75
2023-05-11T11:09:28.842Z,23.75
2023-05-11T11:10:28.859Z,23.78
2023-05-11T11:11:28.827Z,23.80
2023-05-11T11:12:28.852Z,23.84
2023-05-11T11:13:28.827Z,23.86
2023-05-11T11:14:28.816Z,23.87
2023-05-11T11:15:28.828Z,23.85
2023-05-11T11:16:28.862Z,23.84
2023-05-11T11:17:28.871Z,23.81
2023-05-11T11:18:28.889Z,23.78
2023-05-11T11:19:28.853Z,23.75
2023-05-11T11:20:28.854Z,23.72
2023-05-11T11:21:28.899Z,23.69
2023-05-11T11:22:28.919Z,23.67
2023-05-11T11:23:28.936Z,23.63
2023-05-11T11:24:29.001Z,23.61
2023-05-11T11:25:29.010Z,23.60
2023-05-11T11:26:29.036Z,23.57
2023-05-11T11:27:30.743Z,23.57
2023-05-11T11:28:29.090Z,23.55
2023-05-11T11:29:29.130Z,23.53
2023-05-11T11:30:29.144Z,23.51
2023-05-11T11:31:29.226Z,23.51
2023-05-11T11:32:29.343Z,23.50
2023-05-11T11:33:29.248Z,23.48
2023-05-11T11:34:29.353Z,23.47
2023-05-11T11:35:29.324Z,23.45
2023-05-11T11:36:29.368Z,23.46
2023-05-11T11:37:29.412Z,23.45
2023-05-11T11:38:29.775Z,23.44
2023-05-11T11:39:29.531Z,23.44
2023-05-11T11:40:34.126Z,23.43
2023-05-11T11:41:30.590Z,23.43
2023-05-11T11:42:29.558Z,23.42
2023-05-11T11:43:29.537Z,23.42
2023-05-11T11:44:29.538Z,23.42
2023-05-11T11:45:29.534Z,23.40
2023-05-11T11:46:29.488Z,23.40
2023-05-11T11:47:29.539Z,23.40
2023-05-11T11:48:29.521Z,23.39
2023-05-11T11:49:29.524Z,23.40
2023-05-11T11:50:29.454Z,23.38
2023-05-11T11:51:29.456Z,23.39
2023-05-11T11:52:29.534Z,23.38
2023-05-11T11:53:29.496Z,23.38
2023-05-11T11:54:29.558Z,23.37
2023-05-11T11:55:29.589Z,23.37
2023-05-11T11:56:29.629Z,23.36
2023-05-11T11:57:29.708Z,23.36
2023-05-11T11:58:29.750Z,23.35
2023-05-11T11:59:29.771Z,23.35
2023-05-11T12:00:29.845Z,23.34
2023-05-11T12:01:29.885Z,23.35
2023-05-11T12:02:30.007Z,23.34
2023-05-11T12:03:30.135Z,23.33
2023-05-11T12:04:30.051Z,23.33
2023-05-11T12:05:30.099Z,23.34
2023-05-11T12:06:30.113Z,23.35
2023-05-11T12:07:30.189Z,23.35
2023-05-11T12:08:30.229Z,23.34
2023-05-11T12:09:30.326Z,23.35
2023-05-11T12:10:30.316Z,23.34
2023-05-11T12:11:30.374Z,23.34
2023-05-11T12:12:30.436Z,23.33
2023-05-11T12:13:30.488Z,23.33
2023-05-11T12:14:30.515Z,23.34
2023-05-11T12:15:30.574Z,23.34
2023-05-11T12:16:30.726Z,23.34
2023-05-11T12:17:30.796Z,23.35
2023-05-11T12:18:30.774Z,23.35
2023-05-11T12:19:30.780Z,23.35
2023-05-11T12:20:30.831Z,23.35
2023-05-11T12:21:30.891Z,23.34
2023-05-11T12:22:30.965Z,23.34
2023-05-11T12:23:30.998Z,23.33
2023-05-11T12:24:31.032Z,23.33
2023-05-11T12:25:31.105Z,23.33
2023-05-11T12:26:31.172Z,23.33
2023-05-11T12:27:31.208Z,23.33
2023-05-11T12:28:31.247Z,23.31
2023-05-11T12:29:31.305Z,23.32
2023-05-11T12:30:31.365Z,23.32
2023-05-11T12:31:31.504Z,23.31
2023-05-11T12:32:31.536Z,23.31
2023-05-11T12:33:31.528Z,23.31
2023-05-11T12:34:31.597Z,23.30
2023-05-11T12:35:31.649Z,23.30
2023-05-11T12:36:31.670Z,23.29
2023-05-11T12:37:31.745Z,23.30
2023-05-11T12:38:31.772Z,23.29
2023-05-11T12:39:31.838Z,23.29
2023-05-11T12:40:31.881Z,23.29
2023-05-11T12:41:31.960Z,23.29
2023-05-11T12:42:33.995Z,23.28
2023-05-11T12:43:31.988Z,23.28
2023-05-11T12:44:31.998Z,23.29
2023-05-11T12:45:31.966Z,23.28
2023-05-11T12:46:31.981Z,23.27
2023-05-11T12:47:31.971Z,23.25
2023-05-11T12:48:31.957Z,23.24
2023-05-11T12:49:31.935Z,23.23
2023-05-11T12:50:31.929Z,23.21
2023-05-11T12:51:31.934Z,23.18
2023-05-11T12:52:31.931Z,23.17
2023-05-11T12:53:31.906Z,23.16
2023-05-11T12:54:31.919Z,23.12
2023-05-11T12:55:31.914Z,23.09